Time;durP1;ratioP1;P1;durP2;ratioP2;P2;SDS_P1;SDS_P2;PMS_P1;PMS_P2;Temp;Humidity;BMP_temperature;BMP_pressure;BME280_temperature;BME280_humidity;BME280_pressure;Samples;Min_cycle;Max_cycle;Signal;HPM_P1;HPM_P2
2023/12/08 00:02:25;;;;;;;11.50;8.43;;;5.40;99.90;;;;;;5073153;28;20199;-77
2023/12/08 00:04:50;;;;;;;10.93;9.20;;;5.30;99.90;;;;;;5073181;28;20696;-77
2023/12/08 00:07:16;;;;;;;12.53;10.97;;;5.30;99.90;;;;;;5045911;28;20180;-77
2023/12/08 00:09:44;;;;;;;11.70;9.93;;;5.30;99.90;;;;;;5043367;28;20172;-78
2023/12/08 00:12:10;;;;;;;11.02;8.85;;;5.30;99.90;;;;;;5032667;28;20192;-77
2023/12/08 00:14:36;;;;;;;10.95;9.73;;;5.40;99.90;;;;;;5062196;28;20793;-77
2023/12/08 00:17:01;;;;;;;10.90;8.97;;;5.40;99.90;;;;;;5054931;28;20211;-77
2023/12/08 00:19:27;;;;;;;14.07;9.67;;;5.40;99.90;;;;;;5089615;28;20179;-77
2023/12/08 00:21:53;;;;;;;11.10;7.63;;;5.40;99.90;;;;;;5092599;28;20229;-76
2023/12/08 00:24:19;;;;;;;12.10;9.13;;;5.40;99.90;;;;;;5074767;28;20628;-77
2023/12/08 00:26:46;;;;;;;16.33;9.85;;;5.30;99.90;;;;;;5081287;28;20589;-76
2023/12/08 00:29:11;;;;;;;10.65;9.55;;;5.40;99.90;;;;;;5054998;28;20277;-76
2023/12/08 00:31:37;;;;;;;10.40;8.33;;;5.30;99.90;;;;;;5055898;28;20196;-76
2023/12/08 00:34:03;;;;;;;11.27;9.50;;;5.40;99.90;;;;;;5094828;28;20267;-76
2023/12/08 00:36:28;;;;;;;10.70;8.17;;;5.40;99.90;;;;;;5092622;28;20672;-76
2023/12/08 00:38:54;;;;;;;12.00;7.47;;;5.40;99.90;;;;;;5074515;28;20191;-76
2023/12/08 00:41:20;;;;;;;10.57;7.90;;;5.40;99.90;;;;;;5069789;28;20196;-76
2023/12/08 00:43:45;;;;;;;10.77;9.67;;;5.50;99.90;;;;;;5056894;28;20637;-76
2023/12/08 00:46:14;;;;;;;10.90;8.90;;;5.50;99.90;;;;;;5092687;28;20190;-76
2023/12/08 00:48:40;;;;;;;9.98;8.02;;;5.50;99.90;;;;;;5084113;28;20577;-76
2023/12/08 00:51:06;;;;;;;10.53;8.30;;;5.50;99.90;;;;;;5092553;28;20191;-76
2023/12/08 00:53:32;;;;;;;9.65;7.93;;;5.50;99.90;;;;;;5057465;28;20180;-76
2023/12/08 00:55:57;;;;;;;11.90;8.87;;;5.50;99.90;;;;;;5092561;28;20216;-76
2023/12/08 00:58:23;;;;;;;10.07;7.87;;;5.50;99.90;;;;;;5092575;28;20182;-76
2023/12/08 01:00:49;;;;;;;11.40;8.73;;;5.50;99.90;;;;;;5092308;28;20179;-76
2023/12/08 01:03:15;;;;;;;12.18;8.52;;;5.50;99.90;;;;;;5073970;28;20263;-76
2023/12/08 01:05:41;;;;;;;11.37;7.97;;;5.50;99.90;;;;;;5080009;28;20306;-76
2023/12/08 01:08:06;;;;;;;12.40;7.90;;;5.50;99.90;;;;;;5059723;28;20297;-76
2023/12/08 01:10:32;;;;;;;9.27;7.20;;;5.50;99.90;;;;;;5074359;28;20178;-76
2023/12/08 01:12:58;;;;;;;10.10;7.53;;;5.50;99.90;;;;;;5075687;28;20202;-76
2023/12/08 01:15:23;;;;;;;9.20;7.10;;;5.60;99.90;;;;;;5084653;28;20290;-76
2023/12/08 01:17:49;;;;;;;10.17;8.33;;;5.60;99.90;;;;;;5073966;28;20217;-76
2023/12/08 01:20:15;;;;;;;11.00;9.07;;;5.50;99.90;;;;;;5085866;28;20178;-76
2023/12/08 01:22:40;;;;;;;9.07;8.13;;;5.50;99.90;;;;;;5055659;28;20245;-76
2023/12/08 01:25:06;;;;;;;9.37;7.23;;;5.50;99.90;;;;;;5092451;28;20171;-76
2023/12/08 01:27:32;;;;;;;10.88;8.55;;;5.50;99.90;;;;;;5075659;28;20216;-76
2023/12/08 01:29:58;;;;;;;10.47;8.53;;;5.50;99.90;;;;;;5092683;28;20645;-76
2023/12/08 01:32:23;;;;;;;11.53;7.93;;;5.60;99.90;;;;;;5092286;28;20214;-76
2023/12/08 01:34:49;;;;;;;12.10;9.83;;;5.60;99.90;;;;;;5074008;28;20218;-76
2023/12/08 01:37:14;;;;;;;12.67;7.73;;;5.60;99.90;;;;;;5090916;28;20237;-76
2023/12/08 01:39:40;;;;;;;11.47;9.20;;;5.50;99.90;;;;;;5065905;28;20184;-76
2023/12/08 01:42:06;;;;;;;10.90;8.40;;;5.50;99.90;;;;;;5091843;28;20716;-76
2023/12/08 01:44:31;;;;;;;12.17;9.90;;;5.50;99.90;;;;;;5056727;28;20171;-76
2023/12/08 01:46:57;;;;;;;10.57;8.40;;;5.50;99.90;;;;;;5073267;28;20230;-76
2023/12/08 01:49:23;;;;;;;11.73;9.10;;;5.50;99.90;;;;;;5058776;28;20224;-76
2023/12/08 01:51:49;;;;;;;10.90;7.73;;;5.50;99.90;;;;;;5044390;28;20722;-76
2023/12/08 01:54:16;;;;;;;10.43;8.55;;;5.50;99.90;;;;;;5053036;28;20177;-77
2023/12/08 01:56:43;;;;;;;11.48;8.80;;;5.50;99.90;;;;;;5089582;28;20203;-76
2023/12/08 01:59:08;;;;;;;9.48;8.45;;;5.50;99.90;;;;;;5091423;28;20207;-76
2023/12/08 02:01:35;;;;;;;9.43;7.93;;;5.50;99.90;;;;;;5081807;28;20834;-76
2023/12/08 02:04:01;;;;;;;10.05;8.65;;;5.40;99.90;;;;;;5065751;28;20574;-76
2023/12/08 02:06:27;;;;;;;10.77;8.05;;;5.30;99.90;;;;;;5073186;28;20195;-76
2023/12/08 02:08:53;;;;;;;11.33;7.40;;;5.30;99.90;;;;;;5090042;28;20184;-76
2023/12/08 02:11:39;;;;;;;10.57;9.20;;;5.20;99.90;;;;;;5091025;28;20756;-76
2023/12/08 02:14:05;;;;;;;11.27;8.00;;;5.00;99.90;;;;;;5084755;28;20187;-77
2023/12/08 02:16:39;;;;;;;11.27;7.95;;;5.00;99.90;;;;;;5078267;28;20206;-77
2023/12/08 02:19:07;;;;;;;11.68;9.05;;;5.00;99.90;;;;;;5070071;28;20170;-77
2023/12/08 02:21:34;;;;;;;10.60;8.50;;;4.90;99.90;;;;;;5079275;28;20801;-77
2023/12/08 02:23:59;;;;;;;10.75;8.77;;;4.90;99.90;;;;;;5079202;28;20169;-77
2023/12/08 02:26:25;;;;;;;11.57;9.33;;;4.90;99.90;;;;;;5090631;28;20270;-79
2023/12/08 02:28:51;;;;;;;11.83;9.27;;;4.90;99.90;;;;;;5080667;28;21197;-77
2023/12/08 02:31:27;;;;;;;11.80;8.15;;;4.90;99.90;;;;;;5072988;28;20621;-77
2023/12/08 02:33:55;;;;;;;11.00;8.68;;;4.80;99.90;;;;;;5079562;28;20187;-77
2023/12/08 02:36:21;;;;;;;12.63;9.18;;;4.90;99.90;;;;;;5062411;28;20354;-77
2023/12/08 02:38:49;;;;;;;10.98;9.32;;;4.90;99.90;;;;;;5067676;28;20181;-77
2023/12/08 02:41:15;;;;;;;12.45;9.68;;;4.90;99.90;;;;;;5066538;28;20270;-77
2023/12/08 02:43:40;;;;;;;10.33;8.20;;;4.90;99.90;;;;;;5076241;28;20595;-77
2023/12/08 02:46:06;;;;;;;11.20;7.67;;;5.00;99.90;;;;;;5076137;28;20180;-77
2023/12/08 02:48:32;;;;;;;11.87;8.43;;;5.00;99.90;;;;;;5076120;28;20556;-77
2023/12/08 02:50:58;;;;;;;9.93;7.80;;;5.00;99.90;;;;;;5064133;28;20594;-78
2023/12/08 02:53:23;;;;;;;12.13;9.53;;;5.00;99.90;;;;;;5083957;28;20259;-77
2023/12/08 02:55:49;;;;;;;11.00;7.67;;;5.00;99.90;;;;;;5070583;28;20211;-77
2023/12/08 02:58:15;;;;;;;10.03;8.53;;;5.00;99.90;;;;;;5084203;28;20190;-77
2023/12/08 03:00:40;;;;;;;12.20;9.17;;;5.00;99.90;;;;;;5105051;28;20262;-78
2023/12/08 03:03:06;;;;;;;10.70;8.27;;;5.00;99.90;;;;;;5090811;28;20182;-78
2023/12/08 03:05:32;;;;;;;14.13;9.97;;;5.00;99.90;;;;;;5082771;28;20642;-79
2023/12/08 03:07:57;;;;;;;16.43;11.23;;;5.00;99.90;;;;;;5054708;28;20685;-78
2023/12/08 03:10:23;;;;;;;10.27;8.53;;;4.90;99.90;;;;;;5047271;28;20176;-78
2023/12/08 03:12:49;;;;;;;10.50;8.13;;;4.90;99.90;;;;;;5057522;28;20214;-78
2023/12/08 03:15:14;;;;;;;13.03;9.50;;;4.90;99.90;;;;;;5061801;28;20180;-78
2023/12/08 03:17:40;;;;;;;11.17;9.83;;;4.90;99.90;;;;;;5063212;28;20207;-78
2023/12/08 03:20:09;;;;;;;12.35;9.57;;;4.80;99.90;;;;;;5046029;28;20168;-79
2023/12/08 03:22:35;;;;;;;12.10;9.40;;;4.90;99.90;;;;;;4987854;28;20203;-78
2023/12/08 03:25:01;;;;;;;13.30;9.73;;;4.70;99.90;;;;;;5015177;28;20174;-78
2023/12/08 03:27:26;;;;;;;11.50;8.93;;;4.70;99.90;;;;;;5063013;28;20228;-79
2023/12/08 03:29:52;;;;;;;12.17;9.03;;;4.70;99.90;;;;;;5061702;28;20250;-78
2023/12/08 03:32:18;;;;;;;11.50;8.87;;;4.70;99.90;;;;;;5059810;28;20752;-78
2023/12/08 03:34:43;;;;;;;12.63;10.13;;;4.60;99.90;;;;;;5017795;28;20673;-78
2023/12/08 03:37:09;;;;;;;14.17;9.57;;;4.60;99.90;;;;;;5060338;28;20629;-78
2023/12/08 03:39:35;;;;;;;18.57;10.70;;;4.50;99.90;;;;;;4993646;28;20660;-77
2023/12/08 03:42:00;;;;;;;13.87;10.73;;;4.40;99.90;;;;;;4994323;28;20202;-77
2023/12/08 03:44:26;;;;;;;14.13;9.30;;;4.40;99.90;;;;;;5042772;28;20235;-78
2023/12/08 03:46:52;;;;;;;13.00;10.03;;;4.30;99.90;;;;;;5062514;28;20179;-77
2023/12/08 03:49:18;;;;;;;12.70;8.80;;;4.20;99.90;;;;;;5059254;28;20570;-77
2023/12/08 03:51:43;;;;;;;11.73;8.80;;;4.30;99.90;;;;;;5059518;28;20199;-78
2023/12/08 03:54:09;;;;;;;13.60;9.27;;;4.20;99.90;;;;;;5002806;28;20580;-77
2023/12/08 03:56:35;;;;;;;17.03;11.63;;;4.20;99.90;;;;;;4986696;28;20215;-78
2023/12/08 03:59:00;;;;;;;11.43;9.40;;;4.20;99.90;;;;;;5025722;28;20167;-77
2023/12/08 04:01:26;;;;;;;11.43;9.00;;;4.20;99.90;;;;;;4991881;28;20230;-77
2023/12/08 04:03:52;;;;;;;13.43;9.97;;;4.20;99.90;;;;;;5014949;28;20216;-77
2023/12/08 04:06:17;;;;;;;12.70;9.30;;;4.10;99.90;;;;;;5011429;28;20667;-77
2023/12/08 04:08:43;;;;;;;14.30;11.83;;;4.10;99.90;;;;;;5058064;28;20187;-76
2023/12/08 04:11:09;;;;;;;13.57;10.17;;;4.10;99.90;;;;;;5050383;28;20234;-77
2023/12/08 04:13:34;;;;;;;12.63;10.17;;;4.10;99.90;;;;;;5050226;28;20606;-76
2023/12/08 04:16:00;;;;;;;13.47;10.80;;;4.00;99.90;;;;;;5050191;28;20585;-77
2023/12/08 04:18:26;;;;;;;11.85;9.70;;;4.00;99.90;;;;;;4994107;28;20179;-77
2023/12/08 04:20:52;;;;;;;12.10;9.70;;;4.00;99.90;;;;;;5054561;28;20350;-77
2023/12/08 04:23:17;;;;;;;14.20;10.20;;;4.10;99.90;;;;;;5037688;28;20195;-76
2023/12/08 04:25:43;;;;;;;15.90;9.70;;;4.00;99.90;;;;;;5030012;28;20186;-77
2023/12/08 04:28:09;;;;;;;19.07;10.30;;;4.10;99.90;;;;;;5029915;28;20188;-77
2023/12/08 04:30:34;;;;;;;13.40;10.77;;;4.10;99.90;;;;;;5005960;28;20185;-77
2023/12/08 04:33:00;;;;;;;13.30;10.40;;;4.10;99.90;;;;;;5012858;28;20182;-77
2023/12/08 04:35:26;;;;;;;13.93;10.05;;;4.00;99.90;;;;;;5038064;28;20298;-77
2023/12/08 04:37:52;;;;;;;12.80;9.97;;;4.00;99.90;;;;;;5037699;28;20290;-77
2023/12/08 04:40:18;;;;;;;10.32;8.90;;;4.00;99.90;;;;;;5016010;28;20266;-78
2023/12/08 04:42:44;;;;;;;12.20;9.83;;;4.00;99.90;;;;;;4960771;28;20813;-78
2023/12/08 04:45:13;;;;;;;13.52;10.50;;;4.00;99.90;;;;;;4970351;28;20246;-77
2023/12/08 04:47:39;;;;;;;11.68;9.52;;;4.10;99.90;;;;;;5021121;28;20236;-77
2023/12/08 04:50:05;;;;;;;11.07;8.53;;;4.00;99.90;;;;;;5021521;28;20227;-78
2023/12/08 04:52:30;;;;;;;14.60;10.53;;;4.10;99.90;;;;;;5022579;28;20616;-77
2023/12/08 04:54:56;;;;;;;14.17;10.83;;;4.10;99.90;;;;;;4981024;28;20598;-77
2023/12/08 04:57:22;;;;;;;12.60;9.53;;;4.10;99.90;;;;;;5007013;28;20208;-77
2023/12/08 04:59:47;;;;;;;13.93;11.33;;;4.10;99.90;;;;;;4959567;28;20181;-78
2023/12/08 05:02:13;;;;;;;12.93;10.47;;;4.00;99.90;;;;;;5043063;28;20244;-78
2023/12/08 05:04:40;;;;;;;16.80;12.10;;;4.00;99.90;;;;;;5041199;28;20245;-78
2023/12/08 05:07:06;;;;;;;14.50;10.65;;;4.00;99.90;;;;;;4954950;28;20590;-78
2023/12/08 05:09:31;;;;;;;14.20;11.40;;;4.00;99.90;;;;;;5029107;28;20556;-78
2023/12/08 05:11:57;;;;;;;13.60;10.90;;;4.00;99.90;;;;;;5035417;28;20208;-78
2023/12/08 05:14:23;;;;;;;16.13;11.53;;;4.00;99.90;;;;;;5023313;28;20649;-78
2023/12/08 05:16:48;;;;;;;15.57;11.17;;;4.00;99.90;;;;;;4962750;28;20311;-78
2023/12/08 05:19:14;;;;;;;14.03;11.40;;;4.00;99.90;;;;;;5045757;28;20597;-78
2023/12/08 05:21:40;;;;;;;14.60;11.07;;;4.00;99.90;;;;;;5030775;28;20352;-78
2023/12/08 05:24:06;;;;;;;14.73;11.17;;;4.00;99.90;;;;;;5028716;28;20594;-78
2023/12/08 05:26:31;;;;;;;17.40;12.40;;;4.00;99.90;;;;;;5045357;28;20196;-78
2023/12/08 05:28:57;;;;;;;20.60;13.17;;;4.00;99.90;;;;;;5038681;28;20194;-78
2023/12/08 05:31:23;;;;;;;14.93;10.80;;;4.00;99.90;;;;;;4979831;28;20650;-78
2023/12/08 05:33:49;;;;;;;16.27;12.13;;;4.10;99.90;;;;;;5018396;28;20195;-78
2023/12/08 05:36:14;;;;;;;12.97;10.63;;;4.10;99.90;;;;;;5028878;28;20245;-78
2023/12/08 05:38:40;;;;;;;15.20;12.13;;;4.10;99.90;;;;;;4978349;28;20163;-78
2023/12/08 05:41:07;;;;;;;20.70;15.30;;;4.10;99.90;;;;;;4978812;28;20727;-78
2023/12/08 05:43:33;;;;;;;13.95;11.18;;;4.00;99.90;;;;;;5037636;28;20258;-78
2023/12/08 05:45:59;;;;;;;17.70;13.80;;;4.10;99.90;;;;;;5028451;28;20619;-78
2023/12/08 05:48:24;;;;;;;16.40;12.13;;;4.10;99.90;;;;;;5036863;28;20617;-78
2023/12/08 05:50:50;;;;;;;16.37;12.00;;;4.10;99.90;;;;;;5036643;28;20591;-78
2023/12/08 05:53:16;;;;;;;13.70;11.60;;;4.20;99.90;;;;;;5036356;28;20179;-78
2023/12/08 05:55:41;;;;;;;15.87;11.30;;;4.20;99.90;;;;;;4972354;28;20172;-78
2023/12/08 05:58:07;;;;;;;13.07;10.63;;;4.20;99.90;;;;;;4969508;28;20212;-79
2023/12/08 06:00:33;;;;;;;13.83;10.73;;;4.30;99.90;;;;;;5028339;28;20184;-78
2023/12/08 06:02:59;;;;;;;17.20;13.60;;;4.30;99.90;;;;;;5035892;28;20222;-78
2023/12/08 06:05:25;;;;;;;13.57;10.82;;;4.30;99.90;;;;;;5036531;28;20180;-78
2023/12/08 06:07:51;;;;;;;14.18;12.05;;;4.30;99.90;;;;;;4972466;28;20183;-78
2023/12/08 06:10:17;;;;;;;15.87;12.37;;;4.40;99.90;;;;;;5020017;28;20194;-78
2023/12/08 06:12:42;;;;;;;16.38;11.90;;;4.40;99.90;;;;;;5035889;28;20299;-78
2023/12/08 06:15:10;;;;;;;13.70;11.37;;;4.50;99.90;;;;;;5036192;28;20314;-78
2023/12/08 06:17:36;;;;;;;15.18;12.30;;;4.50;99.90;;;;;;5027943;28;20212;-78
2023/12/08 06:20:04;;;;;;;18.50;12.82;;;4.50;99.90;;;;;;4969659;28;20539;-78
2023/12/08 06:22:30;;;;;;;15.63;12.00;;;4.50;99.90;;;;;;5059335;28;20236;-78
2023/12/08 06:24:56;;;;;;;16.60;12.85;;;4.50;99.90;;;;;;5079341;28;20225;-78
2023/12/08 06:27:22;;;;;;;13.87;11.73;;;4.50;99.90;;;;;;5058522;28;20543;-79
2023/12/08 06:29:50;;;;;;;19.70;13.10;;;4.50;99.90;;;;;;5039319;28;20184;-78
2023/12/08 06:32:18;;;;;;;18.23;12.43;;;4.50;99.90;;;;;;5052913;28;20601;-79
2023/12/08 06:34:46;;;;;;;14.85;12.00;;;4.50;99.90;;;;;;5045136;28;20180;-78
2023/12/08 06:37:12;;;;;;;14.75;11.18;;;4.50;99.90;;;;;;5083273;28;20294;-79
2023/12/08 06:39:39;;;;;;;15.35;12.88;;;4.50;99.90;;;;;;5065989;28;20251;-78
2023/12/08 06:42:06;;;;;;;18.55;14.48;;;4.60;99.90;;;;;;5088715;28;20207;-79
2023/12/08 06:44:31;;;;;;;14.40;11.25;;;4.60;99.90;;;;;;5090240;28;20194;-79
2023/12/08 06:46:58;;;;;;;16.00;11.80;;;4.60;99.90;;;;;;5100874;28;20183;-79
2023/12/08 06:49:24;;;;;;;15.13;13.15;;;4.60;99.90;;;;;;5072118;28;20638;-79
2023/12/08 06:51:50;;;;;;;12.75;11.00;;;4.60;99.90;;;;;;5065917;28;20204;-79
2023/12/08 06:54:16;;;;;;;16.50;13.07;;;4.60;99.90;;;;;;5073441;28;20196;-80
2023/12/08 06:56:42;;;;;;;15.70;11.57;;;4.60;99.90;;;;;;5095642;28;20266;-79
2023/12/08 06:59:08;;;;;;;15.35;12.25;;;4.60;99.90;;;;;;5093030;28;20316;-80
2023/12/08 07:01:37;;;;;;;17.52;12.50;;;4.70;99.90;;;;;;5070419;28;20195;-79
2023/12/08 07:04:06;;;;;;;17.75;12.82;;;4.60;99.90;;;;;;5093356;28;20175;-80
2023/12/08 07:06:33;;;;;;;16.15;12.55;;;4.60;99.90;;;;;;5071753;28;20175;-78
2023/12/08 07:08:59;;;;;;;17.70;12.43;;;4.60;99.90;;;;;;5085247;28;20263;-78
2023/12/08 07:11:24;;;;;;;19.67;13.77;;;4.70;99.90;;;;;;5087456;28;20634;-78
2023/12/08 07:13:50;;;;;;;18.53;13.77;;;4.60;99.90;;;;;;5077308;28;20263;-79
2023/12/08 07:16:16;;;;;;;16.50;13.00;;;4.60;99.90;;;;;;5095139;28;20195;-79
2023/12/08 07:18:42;;;;;;;17.40;13.63;;;4.70;99.90;;;;;;5076709;28;20612;-78
2023/12/08 07:21:07;;;;;;;17.33;14.43;;;4.70;99.90;;;;;;5071079;28;20640;-78
2023/12/08 07:23:33;;;;;;;19.30;15.27;;;4.70;99.90;;;;;;5098610;28;20263;-79
2023/12/08 07:26:00;;;;;;;17.98;14.05;;;4.70;99.90;;;;;;5076871;28;20690;-78
2023/12/08 07:28:26;;;;;;;15.82;12.93;;;4.60;99.90;;;;;;5094947;28;20160;-78
2023/12/08 07:30:52;;;;;;;13.57;11.00;;;4.70;99.90;;;;;;5094743;28;20202;-78
2023/12/08 07:33:18;;;;;;;15.93;12.77;;;4.80;99.90;;;;;;5094780;28;20224;-77
2023/12/08 07:35:44;;;;;;;18.13;14.83;;;4.80;99.90;;;;;;5076550;28;20672;-78
2023/12/08 07:38:09;;;;;;;16.23;12.03;;;4.80;99.90;;;;;;5094449;28;20668;-79
2023/12/08 07:40:35;;;;;;;17.73;14.53;;;4.80;99.90;;;;;;5076480;28;20758;-78
2023/12/08 07:43:00;;;;;;;17.00;12.03;;;4.80;99.90;;;;;;5059474;28;20696;-78
2023/12/08 07:45:26;;;;;;;16.07;11.80;;;4.80;99.90;;;;;;5076274;28;20233;-78
2023/12/08 07:47:52;;;;;;;20.30;15.80;;;4.90;99.90;;;;;;5060009;28;20168;-78
2023/12/08 07:50:18;;;;;;;17.50;13.65;;;4.90;99.90;;;;;;5087493;28;20197;-77
2023/12/08 07:52:44;;;;;;;13.67;11.70;;;4.90;99.90;;;;;;5099241;28;20195;-78
2023/12/08 07:55:10;;;;;;;16.40;12.20;;;4.90;99.90;;;;;;5076252;28;20597;-78
2023/12/08 07:57:36;;;;;;;15.87;13.73;;;4.90;99.90;;;;;;5114662;28;20248;-79
2023/12/08 08:00:05;;;;;;;17.37;13.43;;;4.90;99.90;;;;;;5099841;28;20659;-77
2023/12/08 08:02:31;;;;;;;15.82;13.10;;;4.90;99.90;;;;;;5096784;28;20592;-78
2023/12/08 08:04:58;;;;;;;16.75;12.70;;;4.90;99.90;;;;;;5096780;28;20163;-78
2023/12/08 08:07:23;;;;;;;17.05;14.63;;;5.00;99.90;;;;;;5096373;28;20171;-78
2023/12/08 08:09:49;;;;;;;18.60;14.93;;;4.90;99.90;;;;;;5091571;28;20202;-77
2023/12/08 08:12:15;;;;;;;18.20;13.43;;;5.00;99.90;;;;;;5094826;28;20252;-78
2023/12/08 08:14:41;;;;;;;16.50;13.27;;;5.00;99.90;;;;;;5094751;28;20200;-78
2023/12/08 08:17:06;;;;;;;15.00;12.57;;;5.00;99.90;;;;;;5103718;22;20777;-76
2023/12/08 08:19:32;;;;;;;16.17;13.70;;;5.10;99.90;;;;;;5123246;27;20307;-77
2023/12/08 08:21:58;;;;;;;17.57;12.30;;;5.10;99.90;;;;;;5120554;27;20203;-76
2023/12/08 08:24:23;;;;;;;16.87;12.07;;;5.10;99.90;;;;;;5122712;27;20201;-76
2023/12/08 08:26:49;;;;;;;19.03;14.57;;;5.10;99.90;;;;;;5130206;27;20197;-77
2023/12/08 08:29:15;;;;;;;14.10;11.50;;;5.10;99.90;;;;;;5124442;27;20192;-77
2023/12/08 08:31:41;;;;;;;17.40;12.77;;;5.20;99.90;;;;;;5137246;27;20185;-77
2023/12/08 08:34:07;;;;;;;16.65;13.55;;;5.20;99.90;;;;;;5127843;27;20943;-76
2023/12/08 08:36:33;;;;;;;16.27;12.20;;;5.20;99.90;;;;;;5139999;27;20201;-76
2023/12/08 08:38:58;;;;;;;19.63;13.33;;;5.20;99.90;;;;;;5144325;27;20172;-76
2023/12/08 08:41:24;;;;;;;15.43;12.93;;;5.20;99.90;;;;;;5125182;27;20173;-77
2023/12/08 08:43:50;;;;;;;17.77;12.00;;;5.30;99.90;;;;;;5137053;27;20174;-76
2023/12/08 08:46:20;;;;;;;15.95;14.20;;;5.30;99.90;;;;;;5155086;27;20211;-77
2023/12/08 08:48:45;;;;;;;16.42;12.35;;;5.30;99.90;;;;;;5154600;27;20169;-76
2023/12/08 08:51:11;;;;;;;17.20;14.13;;;5.40;99.90;;;;;;5133599;27;20166;-77
2023/12/08 08:53:37;;;;;;;15.80;13.43;;;5.40;99.90;;;;;;5148180;27;20177;-76
2023/12/08 08:56:03;;;;;;;16.90;13.77;;;5.40;99.90;;;;;;5127215;27;21008;-77
2023/12/08 08:58:29;;;;;;;19.20;14.27;;;5.40;99.90;;;;;;5154325;27;20217;-75
2023/12/08 09:00:55;;;;;;;16.02;12.95;;;5.40;99.90;;;;;;5108497;27;20202;-75
2023/12/08 09:03:21;;;;;;;14.33;12.40;;;5.50;99.90;;;;;;5144587;27;20198;-76
2023/12/08 09:05:46;;;;;;;17.00;13.45;;;5.50;99.90;;;;;;5118995;27;20167;-76
2023/12/08 09:08:13;;;;;;;17.43;14.30;;;5.60;99.90;;;;;;5137893;27;20200;-76
2023/12/08 09:10:40;;;;;;;15.60;11.98;;;5.50;99.90;;;;;;5116084;27;20169;-76
2023/12/08 09:13:06;;;;;;;14.77;12.45;;;5.60;99.90;;;;;;5133623;27;20265;-76
2023/12/08 09:15:31;;;;;;;13.77;11.27;;;5.60;99.90;;;;;;5107684;28;20313;-75
2023/12/08 09:17:57;;;;;;;13.73;12.27;;;5.70;99.90;;;;;;5136868;27;20759;-76
2023/12/08 09:20:23;;;;;;;17.10;13.27;;;5.80;99.90;;;;;;5117328;27;20177;-76
2023/12/08 09:22:50;;;;;;;18.17;13.70;;;5.80;99.90;;;;;;5124546;27;20237;-75
2023/12/08 09:25:17;;;;;;;14.75;12.35;;;5.70;99.90;;;;;;5104479;27;21160;-76
2023/12/08 09:27:43;;;;;;;15.57;11.63;;;5.80;99.90;;;;;;5129426;27;20189;-76
2023/12/08 09:30:09;;;;;;;13.37;10.27;;;5.90;99.90;;;;;;5105639;27;20700;-76
2023/12/08 09:32:35;;;;;;;18.40;13.70;;;5.90;99.90;;;;;;5119831;27;20177;-76
2023/12/08 09:35:01;;;;;;;16.87;13.37;;;5.90;99.90;;;;;;5105668;27;20232;-76
2023/12/08 09:37:26;;;;;;;17.47;13.17;;;5.90;99.90;;;;;;5117795;27;20193;-77
2023/12/08 09:39:52;;;;;;;16.03;12.70;;;5.90;99.90;;;;;;5134368;27;20576;-76
2023/12/08 09:42:49;;;;;;;18.80;13.70;;;5.90;99.90;;;;;;5097598;27;20171;-76
2023/12/08 09:45:14;;;;;;;13.68;12.20;;;5.90;99.90;;;;;;5084359;27;20186;-76
2023/12/08 09:47:41;;;;;;;17.27;13.30;;;5.90;99.90;;;;;;5114072;27;20198;-76
2023/12/08 09:50:09;;;;;;;15.50;12.55;;;5.90;99.90;;;;;;5115244;27;20178;-76
2023/12/08 09:52:36;;;;;;;17.05;12.25;;;5.90;99.90;;;;;;5121757;27;20188;-76
2023/12/08 09:55:03;;;;;;;16.30;13.63;;;6.00;99.90;;;;;;5134035;27;20173;-76
2023/12/08 09:57:32;;;;;;;16.40;12.43;;;6.00;99.90;;;;;;5117778;27;20202;-76
2023/12/08 10:00:01;;;;;;;18.58;13.68;;;6.00;99.90;;;;;;5110165;27;20162;-76
2023/12/08 10:02:28;;;;;;;21.00;14.43;;;6.00;99.90;;;;;;5138447;27;20179;-76
2023/12/08 10:04:53;;;;;;;13.02;11.60;;;6.00;99.90;;;;;;5090649;27;20166;-76
2023/12/08 10:07:20;;;;;;;18.67;14.67;;;6.10;99.90;;;;;;5116497;27;20693;-75
2023/12/08 10:09:46;;;;;;;19.90;14.35;;;6.10;99.90;;;;;;5120850;27;20174;-76
2023/12/08 10:12:12;;;;;;;16.50;12.73;;;6.10;99.90;;;;;;5116935;27;20182;-77
2023/12/08 10:15:11;;;;;;;17.90;14.70;;;6.10;99.90;;;;;;5144254;27;21130;-76
2023/12/08 10:17:51;;;;;;;19.13;14.27;;;6.20;99.90;;;;;;5043996;28;20654;-76
2023/12/08 10:20:18;;;;;;;14.38;12.02;;;6.10;99.90;;;;;;5068101;27;20574;-75
2023/12/08 10:22:55;;;;;;;12.18;9.85;;;6.20;99.90;;;;;;5061724;27;20261;-76
2023/12/08 10:25:22;;;;;;;13.48;9.75;;;6.30;99.90;;;;;;5067758;27;20221;-75
2023/12/08 10:27:53;;;;;;;12.98;9.60;;;6.40;99.90;;;;;;5042081;28;20571;-77
2023/12/08 10:30:21;;;;;;;14.13;12.57;;;6.50;99.90;;;;;;5059762;28;20189;-76
2023/12/08 10:32:47;;;;;;;17.10;12.60;;;6.50;99.90;;;;;;5058659;27;20185;-76
2023/12/08 10:35:13;;;;;;;15.15;12.38;;;6.50;99.90;;;;;;5042207;28;20454;-76
2023/12/08 10:37:39;;;;;;;14.97;12.23;;;6.50;99.90;;;;;;5049413;28;20207;-77
2023/12/08 10:40:10;;;;;;;13.85;10.40;;;6.60;99.90;;;;;;5035000;28;20686;-76
2023/12/08 10:42:36;;;;;;;11.93;10.70;;;6.60;99.90;;;;;;5052794;27;20237;-76
2023/12/08 10:45:10;;;;;;;13.60;11.00;;;6.70;99.90;;;;;;5061445;27;20165;-77
2023/12/08 10:47:42;;;;;;;12.50;9.25;;;6.80;99.90;;;;;;5040244;27;20618;-77
2023/12/08 10:50:09;;;;;;;11.30;9.45;;;6.80;99.90;;;;;;5065334;28;20172;-77
2023/12/08 10:52:38;;;;;;;14.60;11.65;;;6.90;99.90;;;;;;5064654;28;20602;-75
2023/12/08 10:55:08;;;;;;;12.98;10.95;;;6.90;99.90;;;;;;5063377;28;20176;-76
2023/12/08 10:57:35;;;;;;;16.15;12.68;;;6.90;99.90;;;;;;5071644;28;20216;-77
2023/12/08 11:00:19;;;;;;;14.32;11.50;;;6.90;99.90;;;;;;5068032;27;20270;-77
2023/12/08 11:02:49;;;;;;;12.57;10.38;;;6.90;99.90;;;;;;5035807;28;20177;-76
2023/12/08 11:05:47;;;;;;;14.63;11.23;;;7.00;99.90;;;;;;5033019;28;20200;-76
2023/12/08 11:08:16;;;;;;;16.88;13.05;;;7.00;99.90;;;;;;5102069;27;20265;-76
2023/12/08 11:10:46;;;;;;;12.95;11.45;;;7.10;99.90;;;;;;5062272;27;20539;-76
2023/12/08 11:13:17;;;;;;;12.63;10.88;;;7.10;99.90;;;;;;5055445;27;20257;-78
2023/12/08 11:16:01;;;;;;;14.40;11.95;;;7.10;99.90;;;;;;5034756;27;20184;-78
2023/12/08 11:18:30;;;;;;;13.73;10.63;;;7.20;99.90;;;;;;5033092;28;20676;-78
2023/12/08 11:20:56;;;;;;;12.05;10.05;;;7.20;99.90;;;;;;5067387;28;20176;-77
2023/12/08 11:23:24;;;;;;;14.27;10.52;;;7.20;99.90;;;;;;5058697;27;20188;-76
2023/12/08 11:26:07;;;;;;;13.98;10.32;;;7.30;99.90;;;;;;5034752;27;20197;-77
2023/12/08 11:28:48;;;;;;;13.52;11.13;;;7.30;99.90;;;;;;5054777;28;20203;-77
2023/12/08 11:31:18;;;;;;;13.25;10.27;;;7.40;99.90;;;;;;5018397;27;20257;-77
2023/12/08 11:33:58;;;;;;;12.70;10.27;;;7.40;99.90;;;;;;5038308;28;20184;-77
2023/12/08 11:36:28;;;;;;;16.60;10.80;;;7.40;99.90;;;;;;5062244;28;20290;-76
2023/12/08 11:38:55;;;;;;;13.98;10.32;;;7.40;99.90;;;;;;5034173;28;20185;-77
2023/12/08 11:41:23;;;;;;;12.75;9.45;;;7.40;99.90;;;;;;5048570;27;20204;-77
2023/12/08 11:43:48;;;;;;;13.55;10.90;;;7.50;99.90;;;;;;5027313;28;20177;-77
2023/12/08 11:46:14;;;;;;;11.93;9.30;;;7.50;99.90;;;;;;5043097;27;20189;-77
2023/12/08 11:48:41;;;;;;;12.23;10.05;;;7.50;99.90;;;;;;5045372;27;20205;-77
2023/12/08 11:51:07;;;;;;;14.20;10.63;;;7.50;99.90;;;;;;5029605;27;20273;-76
2023/12/08 11:53:52;;;;;;;14.90;11.55;;;7.40;99.90;;;;;;5050347;27;20553;-77
2023/12/08 11:56:41;;;;;;;11.60;9.68;;;7.50;99.90;;;;;;5032390;27;20189;-76
2023/12/08 11:59:07;;;;;;;12.63;9.70;;;7.50;99.90;;;;;;5050204;27;20242;-76
2023/12/08 12:01:36;;;;;;;13.87;9.47;;;7.60;99.90;;;;;;5016002;28;20567;-76
2023/12/08 12:04:02;;;;;;;16.75;13.05;;;7.60;99.90;;;;;;5092748;27;20588;-76
2023/12/08 12:06:30;;;;;;;14.53;11.53;;;7.60;99.90;;;;;;5048635;27;20218;-77
2023/12/08 12:08:59;;;;;;;13.10;11.02;;;7.50;99.90;;;;;;5012859;28;20646;-77
2023/12/08 12:11:35;;;;;;;12.98;9.52;;;7.50;99.90;;;;;;5049745;27;20556;-77
2023/12/08 12:14:07;;;;;;;13.63;10.63;;;7.60;99.90;;;;;;5032321;27;20912;-77
2023/12/08 12:16:33;;;;;;;10.88;9.07;;;7.60;99.90;;;;;;5031959;28;20223;-77
2023/12/08 12:18:59;;;;;;;11.98;8.35;;;7.70;99.90;;;;;;5032028;27;20188;-77
2023/12/08 12:21:24;;;;;;;12.03;9.97;;;7.80;99.90;;;;;;5050529;27;20181;-77
2023/12/08 12:23:50;;;;;;;18.70;9.77;;;7.80;99.90;;;;;;5031520;28;20174;-77
2023/12/08 12:26:20;;;;;;;13.00;9.63;;;7.80;99.90;;;;;;5013395;27;20181;-76
2023/12/08 12:28:47;;;;;;;16.10;10.88;;;7.80;99.90;;;;;;5030555;28;20265;-76
2023/12/08 12:31:15;;;;;;;17.48;12.18;;;7.80;99.90;;;;;;5039832;27;20183;-76
2023/12/08 12:33:43;;;;;;;14.63;10.52;;;7.80;99.90;;;;;;5034780;27;20176;-76
2023/12/08 12:36:11;;;;;;;13.85;11.98;;;7.80;99.90;;;;;;5006035;28;20174;-76
2023/12/08 12:38:38;;;;;;;15.93;12.00;;;7.80;99.90;;;;;;5059799;27;20678;-76
2023/12/08 12:41:24;;;;;;;16.05;11.80;;;7.80;99.90;;;;;;5030860;27;20188;-77